createdAt,value
2023-04-16T00:03:54.837Z,97591.72
2023-04-16T00:07:57.236Z,97600.47
2023-04-16T00:11:59.431Z,97591.63
2023-04-16T00:16:01.525Z,97589.38
2023-04-16T00:20:04.193Z,97590.53
2023-04-16T00:24:06.339Z,97584.34
2023-04-16T00:28:11.024Z,97582.25
2023-04-16T00:32:14.092Z,97581.34
2023-04-16T00:36:16.483Z,97578.13
2023-04-16T00:40:19.038Z,97583.81
2023-04-16T00:44:23.001Z,97579.00
2023-04-16T00:48:27.849Z,97574.66
2023-04-16T00:52:32.838Z,97571.13
2023-04-16T00:56:36.621Z,97577.03
2023-04-16T01:00:38.727Z,97580.97
2023-04-16T01:04:45.338Z,97574.34
2023-04-16T01:08:53.106Z,97575.56
2023-04-16T01:12:57.323Z,97568.28
2023-04-16T01:17:00.031Z,97573.50
2023-04-16T01:21:02.904Z,97580.19
2023-04-16T01:25:06.371Z,97581.47
2023-04-16T01:29:09.640Z,97571.34
2023-04-16T01:33:14.706Z,97576.84
2023-04-16T01:37:17.691Z,97578.13
2023-04-16T01:41:22.030Z,97574.56
2023-04-16T01:45:24.202Z,97570.34
2023-04-16T01:49:26.380Z,97579.25
2023-04-16T01:53:28.753Z,97575.78
2023-04-16T01:57:30.979Z,97575.19
2023-04-16T02:01:33.243Z,97574.22
2023-04-16T02:05:35.744Z,97577.72
2023-04-16T02:09:43.259Z,97577.13
2023-04-16T02:13:47.029Z,97572.53
2023-04-16T02:17:54.069Z,97577.84
2023-04-16T02:21:58.382Z,97577.91
2023-04-16T02:26:01.213Z,97552.63
2023-04-16T02:30:04.812Z,97569.13
2023-04-16T02:34:09.550Z,97579.88
2023-04-16T02:38:11.832Z,97590.25
2023-04-16T02:42:15.000Z,97573.22
2023-04-16T02:46:17.303Z,97591.53
2023-04-16T02:50:19.652Z,97574.00
2023-04-16T02:54:22.103Z,97584.41
2023-04-16T02:58:25.837Z,97583.56
2023-04-16T03:02:28.078Z,97570.03
2023-04-16T03:06:31.508Z,97580.63
2023-04-16T03:10:35.118Z,97566.81
2023-04-16T03:14:37.159Z,97577.72
2023-04-16T03:18:40.558Z,97581.19
2023-04-16T03:22:43.207Z,97581.75
2023-04-16T03:26:45.385Z,97608.38
2023-04-16T03:30:53.149Z,97606.28
2023-04-16T03:34:57.098Z,97625.13
2023-04-16T03:38:59.512Z,97623.25
2023-04-16T03:43:02.497Z,97630.63
2023-04-16T03:47:04.647Z,97626.41
2023-04-16T03:51:06.829Z,97642.66
2023-04-16T03:55:10.053Z,97640.44
2023-04-16T03:59:12.357Z,97650.84
2023-04-16T04:03:17.457Z,97640.72
2023-04-16T04:07:21.725Z,97635.66
2023-04-16T04:11:24.002Z,97653.53
2023-04-16T04:15:28.408Z,97655.78
2023-04-16T04:19:30.881Z,97662.47
2023-04-16T04:23:33.457Z,97657.22
2023-04-16T04:27:35.838Z,97674.31
2023-04-16T04:31:38.304Z,97678.25
2023-04-16T04:35:40.640Z,97688.00
2023-04-16T04:39:44.259Z,97688.28
2023-04-16T04:43:47.593Z,97697.72
2023-04-16T04:47:49.923Z,97693.72
2023-04-16T04:51:52.402Z,97699.84
2023-04-16T04:55:58.750Z,97704.63
2023-04-16T05:00:11.569Z,97722.75
2023-04-16T05:04:23.991Z,97716.34
2023-04-16T05:08:26.359Z,97718.50
2023-04-16T05:12:28.508Z,97722.75
2023-04-16T05:16:30.769Z,97731.53
2023-04-16T05:20:32.893Z,97744.03
2023-04-16T05:24:35.644Z,97742.09
2023-04-16T05:28:37.752Z,97748.47
2023-04-16T05:32:41.461Z,97745.47
2023-04-16T05:36:43.546Z,97759.72
2023-04-16T05:40:45.883Z,97763.63
2023-04-16T05:44:48.676Z,97761.66
2023-04-16T05:48:50.826Z,97765.25
2023-04-16T05:52:52.959Z,97764.91
2023-04-16T05:56:55.033Z,97753.94
2023-04-16T06:00:57.272Z,97755.00
2023-04-16T06:04:59.328Z,97758.56
2023-04-16T06:09:01.559Z,97758.75
2023-04-16T06:13:03.753Z,97763.66
2023-04-16T06:17:05.816Z,97770.66
2023-04-16T06:21:08.018Z,97773.91
2023-04-16T06:25:10.319Z,97764.41
2023-04-16T06:29:12.491Z,97780.47
2023-04-16T06:33:14.641Z,97791.19
2023-04-16T06:37:17.830Z,97777.72
2023-04-16T06:41:20.801Z,97787.22
2023-04-16T06:45:24.910Z,97799.03
2023-04-16T06:49:27.151Z,97788.31
2023-04-16T06:53:29.235Z,97794.44
2023-04-16T06:57:31.401Z,97806.84
2023-04-16T07:01:34.422Z,97811.09
2023-04-16T07:05:36.722Z,97807.91
2023-04-16T07:09:38.912Z,97812.44
2023-04-16T07:13:41.089Z,97821.34
2023-04-16T07:17:43.563Z,97819.59
2023-04-16T07:21:46.286Z,97812.47
2023-04-16T07:25:48.727Z,97813.50
2023-04-16T07:29:52.232Z,97832.88
2023-04-16T07:33:54.461Z,97834.97
2023-04-16T07:37:56.713Z,97856.72
2023-04-16T07:41:58.809Z,97830.47
2023-04-16T07:46:01.029Z,97826.41
2023-04-16T07:50:03.370Z,97836.31
2023-04-16T07:54:05.585Z,97822.47
2023-04-16T07:58:09.563Z,97832.63
2023-04-16T08:02:15.416Z,97843.56
2023-04-16T08:06:17.853Z,97832.41
2023-04-16T08:10:20.001Z,97846.25
2023-04-16T08:14:22.234Z,97834.56
2023-04-16T08:18:24.727Z,97844.25
2023-04-16T08:22:26.908Z,97844.06
2023-04-16T08:26:29.142Z,97857.63
2023-04-16T08:30:31.401Z,97856.72
2023-04-16T08:34:33.528Z,97871.28
2023-04-16T08:38:35.645Z,97859.44
2023-04-16T08:42:55.837Z,97872.88
2023-04-16T08:46:59.197Z,97894.25
2023-04-16T08:51:02.458Z,97894.75
2023-04-16T08:55:12.838Z,97900.84
2023-04-16T08:59:15.024Z,97907.03
2023-04-16T09:03:17.375Z,97905.44
2023-04-16T09:07:21.245Z,97911.00
2023-04-16T09:11:24.328Z,97917.47
2023-04-16T09:15:27.314Z,97913.88
2023-04-16T09:19:29.605Z,97918.13
2023-04-16T09:23:31.802Z,97920.13
2023-04-16T09:27:34.158Z,97912.44
2023-04-16T09:31:36.494Z,97928.63
2023-04-16T09:35:52.963Z,97934.06
2023-04-16T09:40:05.223Z,97944.31
2023-04-16T09:44:08.375Z,97950.25
2023-04-16T09:48:10.649Z,97971.53
2023-04-16T09:52:17.397Z,97954.41
2023-04-16T09:56:24.993Z,97963.81
2023-04-16T10:00:29.313Z,97964.50
2023-04-16T10:04:52.472Z,97964.09
2023-04-16T10:08:57.909Z,97966.28
2023-04-16T10:13:00.286Z,97956.00
2023-04-16T10:17:03.723Z,97954.06
2023-04-16T10:21:06.327Z,97962.75
2023-04-16T10:25:10.517Z,98001.00
2023-04-16T10:29:13.912Z,97968.28
2023-04-16T10:33:16.156Z,97982.38
2023-04-16T10:37:18.699Z,97969.47
2023-04-16T10:41:21.199Z,97963.31
2023-04-16T10:45:29.796Z,97971.94
2023-04-16T10:49:31.952Z,97986.13
2023-04-16T10:53:37.184Z,97975.00
2023-04-16T10:57:39.231Z,97981.84
2023-04-16T11:01:46.380Z,97992.88
2023-04-16T11:05:48.642Z,97990.78
2023-04-16T11:09:53.745Z,97984.53
2023-04-16T11:13:57.107Z,97984.34
2023-04-16T11:17:59.465Z,97982.56
2023-04-16T11:22:02.483Z,97993.75
2023-04-16T11:26:04.690Z,97990.41
2023-04-16T11:30:11.342Z,97993.56
2023-04-16T11:34:14.246Z,97987.94
2023-04-16T11:38:18.820Z,98024.53
2023-04-16T11:42:25.259Z,97998.03
2023-04-16T11:46:40.804Z,97989.91
2023-04-16T11:50:43.569Z,97988.28
2023-04-16T11:54:50.724Z,97978.69
2023-04-16T11:59:16.112Z,97980.06
2023-04-16T12:03:18.598Z,97987.59
2023-04-16T12:07:21.183Z,97979.22
2023-04-16T12:11:40.937Z,97979.16
2023-04-16T12:15:47.772Z,97981.72
2023-04-16T12:19:58.426Z,97982.22
2023-04-16T12:24:00.585Z,97974.97
2023-04-16T12:28:03.193Z,97983.69
2023-04-16T12:32:05.501Z,98001.19
2023-04-16T12:36:20.298Z,97992.44
2023-04-16T12:40:22.604Z,97975.03
2023-04-16T12:44:24.807Z,97965.00
2023-04-16T12:48:26.857Z,97981.44
2023-04-16T12:52:29.091Z,97983.75
2023-04-16T12:56:31.605Z,97964.44
2023-04-16T13:00:33.805Z,97976.66
2023-04-16T13:04:36.061Z,97982.66
2023-04-16T13:08:38.263Z,97966.09
2023-04-16T13:12:40.446Z,97976.81
2023-04-16T13:16:42.597Z,97970.94
2023-04-16T13:20:44.757Z,97981.09
2023-04-16T13:24:46.759Z,97980.00
2023-04-16T13:28:48.841Z,97976.59
2023-04-16T13:32:51.129Z,97987.66
2023-04-16T13:36:53.187Z,97973.59
2023-04-16T13:40:55.373Z,97975.22
2023-04-16T13:44:58.275Z,97973.41
2023-04-16T13:49:00.407Z,97976.44
2023-04-16T13:53:02.852Z,97984.72
2023-04-16T13:57:05.454Z,97974.25
2023-04-16T14:01:08.076Z,97971.88
2023-04-16T14:05:10.672Z,97977.78
2023-04-16T14:09:13.303Z,97987.75
2023-04-16T14:13:16.133Z,97970.38
2023-04-16T14:17:18.277Z,97976.28
2023-04-16T14:21:20.550Z,97982.25
2023-04-16T14:25:22.944Z,97997.50
2023-04-16T14:29:24.953Z,97961.84
2023-04-16T14:33:27.920Z,97965.66
2023-04-16T14:37:30.960Z,97971.31
2023-04-16T14:41:33.208Z,97972.72
2023-04-16T14:45:38.518Z,97962.81
2023-04-16T14:49:41.456Z,97983.22
2023-04-16T14:53:44.093Z,97969.03
2023-04-16T14:57:47.011Z,97977.56
2023-04-16T15:01:51.064Z,97977.38
2023-04-16T15:05:56.270Z,98007.50
2023-04-16T15:09:58.932Z,97988.66
2023-04-16T15:14:01.550Z,97988.19
2023-04-16T15:18:04.848Z,97994.91
2023-04-16T15:22:07.212Z,98000.22
2023-04-16T15:26:09.365Z,98002.06
2023-04-16T15:30:12.652Z,98003.28
2023-04-16T15:34:15.006Z,98012.38
2023-04-16T15:38:18.070Z,98003.19
2023-04-16T15:42:20.500Z,98009.84
2023-04-16T15:46:22.665Z,98008.75
2023-04-16T15:50:25.833Z,98016.75
2023-04-16T15:54:29.035Z,98016.19
2023-04-16T15:58:33.868Z,98013.63
2023-04-16T16:02:36.282Z,98017.91
2023-04-16T16:06:38.727Z,98019.16
2023-04-16T16:10:41.160Z,98020.44
2023-04-16T16:14:44.658Z,98027.16
2023-04-16T16:18:48.333Z,98021.72
2023-04-16T16:22:53.112Z,98027.88
2023-04-16T16:26:56.654Z,98020.47
2023-04-16T16:31:00.785Z,98034.81
2023-04-16T16:35:05.269Z,98024.84
2023-04-16T16:39:08.751Z,98029.97
2023-04-16T16:43:12.273Z,98027.31
2023-04-16T16:47:15.764Z,98039.28
2023-04-16T16:51:19.067Z,98044.13
2023-04-16T16:55:21.345Z,98041.66
2023-04-16T16:59:23.461Z,98050.50
2023-04-16T17:03:25.820Z,98055.84
2023-04-16T17:07:28.111Z,98049.72
2023-04-16T17:11:30.460Z,98062.22
2023-04-16T17:15:32.663Z,98059.69
2023-04-16T17:19:36.338Z,98054.75
2023-04-16T17:23:41.012Z,98064.47
2023-04-16T17:27:46.649Z,98057.72
2023-04-16T17:31:48.847Z,98066.06
2023-04-16T17:35:51.309Z,98074.88
2023-04-16T17:39:53.462Z,98071.72
2023-04-16T17:43:55.687Z,98064.25
2023-04-16T17:47:57.790Z,98067.94
2023-04-16T17:51:59.978Z,98077.16
2023-04-16T17:56:02.844Z,98098.94
2023-04-16T18:00:06.615Z,98097.81
2023-04-16T18:04:14.093Z,98106.91
2023-04-16T18:08:16.848Z,98111.78
2023-04-16T18:12:19.187Z,98111.94
2023-04-16T18:16:22.519Z,98117.59
2023-04-16T18:20:24.828Z,98123.53
2023-04-16T18:24:27.141Z,98125.94
2023-04-16T18:28:29.540Z,98136.91
2023-04-16T18:32:31.812Z,98139.81
2023-04-16T18:36:34.428Z,98146.19
2023-04-16T18:40:37.344Z,98150.47
2023-04-16T18:44:39.474Z,98147.53
2023-04-16T18:48:41.915Z,98146.22
2023-04-16T18:52:44.159Z,98151.25
2023-04-16T18:56:46.350Z,98148.88
2023-04-16T19:00:53.045Z,98148.06
2023-04-16T19:04:55.529Z,98148.88
2023-04-16T19:08:57.780Z,98151.28
2023-04-16T19:13:00.153Z,98161.13
2023-04-16T19:17:02.870Z,98157.16
2023-04-16T19:21:05.802Z,98164.59
2023-04-16T19:25:08.279Z,98154.22
2023-04-16T19:29:10.638Z,98162.47
2023-04-16T19:33:13.379Z,98162.22
2023-04-16T19:37:15.874Z,98171.28
2023-04-16T19:41:18.190Z,98175.50
2023-04-16T19:45:25.681Z,98164.34
2023-04-16T19:49:27.951Z,98168.88
2023-04-16T19:53:30.097Z,98171.00
2023-04-16T19:57:32.272Z,98162.50
2023-04-16T20:01:34.560Z,98167.84
2023-04-16T20:05:36.813Z,98155.31
2023-04-16T20:09:39.055Z,98156.38
2023-04-16T20:13:41.336Z,98151.06
2023-04-16T20:17:44.268Z,98153.72
2023-04-16T20:21:46.490Z,98153.16
2023-04-16T20:25:48.752Z,98139.88
2023-04-16T20:29:51.859Z,98143.56
2023-04-16T20:33:54.260Z,98147.34
2023-04-16T20:37:56.516Z,98146.00
2023-04-16T20:41:58.821Z,98159.00
2023-04-16T20:46:03.033Z,98151.84
2023-04-16T20:50:06.088Z,98151.56
2023-04-16T20:54:12.538Z,98161.16
2023-04-16T20:58:14.672Z,98151.59
2023-04-16T21:02:16.937Z,98145.75
2023-04-16T21:06:22.576Z,98145.75
2023-04-16T21:10:25.209Z,98128.19
2023-04-16T21:14:27.264Z,98125.81
2023-04-16T21:18:29.419Z,98123.16
2023-04-16T21:22:31.661Z,98124.22
2023-04-16T21:26:33.808Z,98108.81
2023-04-16T21:30:36.814Z,98102.66
2023-04-16T21:34:39.077Z,98105.84
2023-04-16T21:38:41.444Z,98099.41
2023-04-16T21:42:45.075Z,98107.44
2023-04-16T21:46:47.727Z,98096.00
2023-04-16T21:51:06.386Z,98095.16
2023-04-16T21:55:09.642Z,98101.81
2023-04-16T21:59:11.947Z,98096.78
2023-04-16T22:03:17.689Z,98102.09
2023-04-16T22:07:20.835Z,98102.38
2023-04-16T22:11:23.475Z,98099.94
2023-04-16T22:15:25.825Z,98100.22
2023-04-16T22:19:28.226Z,98101.00
2023-04-16T22:23:30.540Z,98098.63
2023-04-16T22:27:33.274Z,98095.72
2023-04-16T22:31:35.416Z,98091.44
2023-04-16T22:35:37.564Z,98089.31
2023-04-16T22:39:39.750Z,98105.03
2023-04-16T22:43:43.146Z,98096.78
2023-04-16T22:47:45.339Z,98101.84
2023-04-16T22:51:47.549Z,98094.91
2023-04-16T22:55:49.721Z,98096.50
2023-04-16T22:59:53.163Z,98092.50
2023-04-16T23:03:55.472Z,98085.34
2023-04-16T23:08:01.293Z,98093.06
2023-04-16T23:12:05.298Z,98090.38
2023-04-16T23:16:08.420Z,98086.63
2023-04-16T23:20:13.290Z,98092.50
2023-04-16T23:24:15.638Z,98093.59
2023-04-16T23:28:18.037Z,98093.59
2023-04-16T23:32:21.825Z,98097.28
2023-04-16T23:36:24.071Z,98091.16
2023-04-16T23:40:27.210Z,98092.81
2023-04-16T23:44:29.312Z,98098.13
2023-04-16T23:48:35.100Z,98090.41
2023-04-16T23:52:37.151Z,98092.53
2023-04-16T23:56:39.663Z,98084.28
